Aviation Digital Data Service (ADDS)

Output produced by METARs form (1113 UTC 24 April 2017)
found at http://www.aviationweather.gov/adds/metars/
 
MUSC 241100Z 2412/2512 27006KT 9000 SCT020 
     BECMG 2418/2420 35010KT 
     BECMG 2502/2504 VRB02KT
       
MUCU 241100Z 2412/2512 21008KT 9000 SCT020 
     BECMG 2502/2504 35005KT
       
MUHG 241100Z 2412/2512 15005KT 9000 SCT020 
     TEMPO 2412/2414 4000 BR 
     BECMG 2418/2420 22010KT 
     BECMG 2502/2504 VRB02KT
       
TAF MUGM 2407/2507 21015KT 9999 SCT030 BKN050 BKN200 QNH2990INS 
     BECMG 2412/2414 22015KT 9999 SCT065 BKN250 QNH2983INS T23/2410Z T29/2418Z FN00176
       
MUCM 241100Z 2412/2512 19005KT 9000 SCT020 
     TEMPO 2412/2414 2000 BR 
     BECMG 2418/2420 22010KT 
     BECMG 2502/2504 VRB02KT
       
MUCF 241100Z 2412/2424 VRB02KT 9000 SCT020 
     BECMG 2418/2420 35010KT
       
MUCC 241100Z 2412/2512 24005KT 9000 SCT020 
     BECMG 2416/2418 27010KT 
     BECMG 2502/2504 31006KT
       
MUHA 241100Z 2412/2512 VRB02KT 9000 FEW025 
     BECMG 2414/2417 35010KT SCT025 
     BECMG 2501/2503 VRB03KT
       
MUVR 241100Z 2412/2512 29006KT 9000 SCT020 
     BECMG 2416/2418 32012KT 
     BECMG 2502/2504 31006KT
       
MUCL 241100Z 2412/2424 33010KT 9000 SCT020